Fortuna, MO (65034)

11:41 PM CST on January 31, 2015 (GMT -0600)
KMOCALIF1 | Change Station
CLOSE
Current Station
Personal Weather Station
Location: California, MO
Elevation: 864 ft
Nearby Weather Stations

Elev 864 ft 38.63 °N, 92.57 °W | Updated 15 seconds ago

Rain
Rain
36.4 °F
Feels Like 31 °F
N
6.0
Wind Variable Wind from East
Gusts 6.0 mph

Today
High -- | Low -- °F
--% Chance of Precip.
Yesterday
High -- | Low -- °F
Precip. -- in
7:17 AM 5:31 PM
Waxing Gibbous, 93% visible
Pressure 29.95 in
Visibility 7.0 miles
Clouds Overcast 3800 ft
Windchill 31 °F
Dew Point 32 °F
Humidity 85%
Rainfall 0.37 in
Snow Depth Not available.
UV 0.0 out of 12
Pollen .30 out of 12
Air Quality Not available.
Flu Activity Not available.
METAR KDMO 010453Z AUTO 11007KT 7SM -RA OVC038 02/00 A2993 RMK AO2 SLP140 P0007 T00220000

More Conditions Fewer Conditions

Pressure 29.95 in
Visibility 7.0 miles
Clouds Overcast 3800 ft
Windchill 31 °F
Dew Point 32 °F
Humidity 85%
Rainfall 0.37 in
Snow Depth Not available.
UV 0.0 out of 12
Pollen .30 out of 12
Air Quality Not available.
Flu Activity Not available.
METAR KDMO 010453Z AUTO 11007KT 7SM -RA OVC038 02/00 A2993 RMK AO2 SLP140 P0007 T00220000

More Conditions Fewer Conditions

10-Day Weather Forecast

Almanac

Astronomy

Jan. 31, 2015 Rise Set
Actual Time
Civil Twilight
Nautical Twilight
Astronomical Twilight
Moon
Length of Visible Light
Length of Day
Tomorrow will be .
, % of the Moon is Illuminated

Today's Extremes

State Highs State Lows

Community

WunderPhotos

Upload Photos

1,792,316 photos uploaded!

WunderBlogs® & News

Nearby

Air Quality

  Air Quality AQ Index Pollutant
Not available.

Snow Depth

Station Depth Elevation

Earthquake Activity

City Distance Mag. Time & Date
Minimum magnitude displayed is 2.5.

Coastal Water Temperatures

Place Temperature

Nearby Weather Stations